Franconia, New Hampshire
Current Conditions -  °F | °C
As of 3:52 PM on Monday 24 Nov 2014 (Local Time) from KHIE Reporting Station
Overcast Overcast  
Wind Chill: 64°   Ceiling: 4200
Heat Index: 64°   Visibility: 10mi
Dew Point: 52°   Wind: 6mph
Humidity: 65%   Direction: NA
Pressure: 29.46"   Gusts: NA
Location:  44.23°N, 71.75°W
Report Text: KHIE 242052Z AUTO VRB05KT 10SM OVC042 18/11 A2946 RMK AO2 SLP979 T01780111 56018
Loading
Personal Weather Stations






























Interactive Weather Map New forecast layout! Learn more

10-Day Weather Forecast

Advertisements
Track Severe Weather on mobile